Huntington, IN

1:27 PM EDT on September 02, 2015 (GMT -0400)
Precision Ag Guy | | Change Station
CLOSE
Current Station
Personal Weather Station
Location: Huntington, IN
Elevation: 820 ft
Nearby Weather Stations

Elev 820 ft 40.81 °N, 85.49 °W | Updated 2 minutes ago

Partly Cloudy
Partly Cloudy
--
Feels Like --
N
-
Wind Variable Wind from North
Gusts 0.0 mph

Today
High -- | Low -- °F
--% Chance of Precip.
Yesterday
High -- | Low -- °F
Precip. -- in
7:09 AM 8:13 PM
Waning Gibbous, 78% visible
Pressure 30.07 in
Visibility 10.0 miles
Clouds Few 4000 ft
Few 25000 ft
Dew Point Not available.
Humidity Not available.
Rainfall 0.00 in
Snow Depth Not available.
UV 8 out of 12
Pollen 10.00 out of 12
Air Quality Not available.
Flu Activity Not available.
METAR KFWA 021654Z 28006KT 10SM FEW040 FEW250 29/22 A3009 RMK AO2 SLP182 T02940222
Pressure 30.07 in
Visibility 10.0 miles
Clouds Few 4000 ft
Few 25000 ft
Dew Point Not available.
Humidity Not available.
Rainfall 0.00 in
Snow Depth Not available.
UV 8 out of 12
Pollen 10.00 out of 12
Air Quality Not available.
Flu Activity Not available.
METAR KFWA 021654Z 28006KT 10SM FEW040 FEW250 29/22 A3009 RMK AO2 SLP182 T02940222

10-Day Weather Forecast

×

Almanac

Astronomy

Sep. 02, 2015 Rise Set
Actual Time
Civil Twilight
Nautical Twilight
Astronomical Twilight
Moon
Length of Visible Light
Length of Day
Tomorrow will be .
, % of the Moon is Illuminated

Today's Extremes

State Highs State Lows

Community

WunderPhotos

Upload Photos

1,851,785 photos uploaded!

WunderBlogs® & News

Nearby

Air Quality

  Air Quality AQ Index Pollutant
Not available.

Snow Depth

Station Depth Elevation

Earthquake Activity

City Distance Mag. Time & Date
Minimum magnitude displayed is 2.5.

Coastal Water Temperatures

Place Temperature

Stations

Nearby Weather Stations

Station Location Temp. Windchill Dew Point Humidity Wind Precip. Elev Updated Type